Time;durP1;ratioP1;P1;durP2;ratioP2;P2;SDS_P1;SDS_P2;PMS_P1;PMS_P2;Temp;Humidity;BMP_temperature;BMP_pressure;BME280_temperature;BME280_humidity;BME280_pressure;Samples;Min_cycle;Max_cycle;Signal;HPM_P1;HPM_P2
2022/01/19 00:01:16;;;;;;;7.20;5.90;;;5.10;99.90;;;;;;5058052;28;20894;-68
2022/01/19 00:03:42;;;;;;;7.40;6.53;;;5.10;99.90;;;;;;5059051;28;20970;-68
2022/01/19 00:06:08;;;;;;;9.30;7.00;;;5.00;99.90;;;;;;5057740;28;20437;-67
2022/01/19 00:08:33;;;;;;;7.40;5.80;;;5.00;99.90;;;;;;5058298;28;20175;-67
2022/01/19 00:10:59;;;;;;;8.17;6.03;;;4.90;99.90;;;;;;5057961;28;20447;-67
2022/01/19 00:13:25;;;;;;;11.47;7.00;;;4.80;99.90;;;;;;5058040;28;20273;-67
2022/01/19 00:15:52;;;;;;;7.00;6.30;;;4.70;99.90;;;;;;5070235;28;20193;-68
2022/01/19 00:18:21;;;;;;;10.60;7.00;;;4.80;99.90;;;;;;5078030;28;20816;-67
2022/01/19 00:20:48;;;;;;;8.50;7.23;;;4.90;99.90;;;;;;5077773;28;20472;-67
2022/01/19 00:23:18;;;;;;;8.63;6.50;;;4.90;99.90;;;;;;5078094;28;20405;-68
2022/01/19 00:25:50;;;;;;;7.40;6.70;;;4.70;99.90;;;;;;5075741;28;20435;-67
2022/01/19 00:28:16;;;;;;;6.80;6.07;;;4.50;99.90;;;;;;5073814;28;20446;-68
2022/01/19 00:30:42;;;;;;;7.73;6.93;;;4.30;99.90;;;;;;5074851;28;20414;-67
2022/01/19 00:33:08;;;;;;;8.13;6.07;;;4.20;99.90;;;;;;5056770;28;20876;-67
2022/01/19 00:35:36;;;;;;;7.37;6.50;;;4.20;99.90;;;;;;5073240;28;20534;-67
2022/01/19 00:38:03;;;;;;;7.50;6.80;;;4.30;99.90;;;;;;5084520;22;20833;-69
2022/01/19 00:40:29;;;;;;;9.07;7.40;;;4.30;99.90;;;;;;5041463;28;20412;-69
2022/01/19 00:42:54;;;;;;;8.27;6.90;;;4.40;99.90;;;;;;5045711;28;20880;-68
2022/01/19 00:45:21;;;;;;;9.40;7.20;;;4.50;99.90;;;;;;5053856;28;20170;-67
2022/01/19 00:47:46;;;;;;;7.67;6.90;;;4.30;99.90;;;;;;5049350;28;20742;-69
2022/01/19 00:50:18;;;;;;;7.87;6.63;;;4.40;99.90;;;;;;5031999;28;20418;-68
2022/01/19 00:52:44;;;;;;;8.87;7.43;;;4.40;99.90;;;;;;5012439;28;20291;-68
2022/01/19 00:55:11;;;;;;;8.80;7.47;;;4.30;99.90;;;;;;4996482;28;20542;-68
2022/01/19 00:57:38;;;;;;;8.97;7.40;;;4.30;99.90;;;;;;5014430;28;21004;-69
2022/01/19 01:00:12;;;;;;;9.33;7.70;;;4.30;99.90;;;;;;5032164;28;20441;-69
2022/01/19 01:02:38;;;;;;;8.53;7.63;;;4.40;99.90;;;;;;5021713;28;20473;-68
2022/01/19 01:05:05;;;;;;;9.80;7.90;;;4.40;99.90;;;;;;5013804;28;20814;-69
2022/01/19 01:07:33;;;;;;;8.23;7.43;;;4.40;99.90;;;;;;5013542;28;20203;-68
2022/01/19 01:09:59;;;;;;;8.50;7.70;;;4.40;99.90;;;;;;5013758;28;20493;-68
2022/01/19 01:12:32;;;;;;;9.00;7.07;;;4.30;99.90;;;;;;5014848;28;20427;-68
2022/01/19 01:20:26;;;;;;;8.33;7.47;;;4.30;99.90;;;;;;5013763;28;20913;-69
2022/01/19 01:22:51;;;;;;;9.20;7.77;;;4.30;99.90;;;;;;5014631;28;20426;-69
2022/01/19 01:25:17;;;;;;;9.10;7.43;;;4.30;99.90;;;;;;5013566;28;20244;-68
2022/01/19 01:27:42;;;;;;;8.73;7.20;;;4.30;99.90;;;;;;5013122;28;20220;-69
2022/01/19 01:30:09;;;;;;;10.73;8.60;;;4.30;99.90;;;;;;5013366;28;20169;-69
2022/01/19 01:32:34;;;;;;;8.43;7.63;;;4.40;99.90;;;;;;5014588;28;20175;-69
2022/01/19 01:35:01;;;;;;;10.67;7.60;;;4.40;99.90;;;;;;5013234;28;20407;-68
2022/01/19 01:37:26;;;;;;;11.43;7.53;;;4.40;99.90;;;;;;5012954;28;20199;-70
2022/01/19 01:39:52;;;;;;;12.97;8.60;;;4.30;99.90;;;;;;5012197;28;20445;-69
2022/01/19 01:42:20;;;;;;;9.23;7.80;;;4.30;99.90;;;;;;5013731;28;20182;-69
2022/01/19 01:44:50;;;;;;;12.47;8.27;;;4.20;99.90;;;;;;5013845;28;20183;-68
2022/01/19 01:47:17;;;;;;;11.10;7.93;;;4.20;99.90;;;;;;5012850;28;20427;-69
2022/01/19 01:54:57;;;;;;;10.97;9.00;;;4.10;99.90;;;;;;5014269;28;20439;-69
2022/01/19 01:57:22;;;;;;;10.50;7.97;;;4.20;99.90;;;;;;5012551;28;20423;-69
2022/01/19 01:59:48;;;;;;;9.90;8.47;;;4.20;99.90;;;;;;5013014;28;20176;-68
2022/01/19 02:02:15;;;;;;;8.20;7.30;;;4.00;99.90;;;;;;5012930;28;20518;-69
2022/01/19 02:04:41;;;;;;;10.23;8.00;;;3.90;99.90;;;;;;5013701;28;20195;-68
2022/01/19 02:10:34;;;;;;;12.60;9.47;;;3.80;99.90;;;;;;4968742;28;20868;-68
2022/01/19 02:16:09;;;;;;;11.73;8.90;;;4.00;99.90;;;;;;5013831;28;20442;-69
2022/01/19 02:24:02;;;;;;;8.20;7.37;;;4.30;99.90;;;;;;5012772;28;20399;-69
2022/01/19 02:26:44;;;;;;;7.40;6.70;;;4.40;99.90;;;;;;5007350;28;20435;-69
2022/01/19 02:29:24;;;;;;;6.33;5.73;;;4.40;99.90;;;;;;5032646;28;20804;-69
2022/01/19 02:40:17;;;;;;;6.20;5.50;;;4.60;99.90;;;;;;5018029;28;20528;-70
2022/01/19 02:50:55;;;;;;;6.70;6.10;;;4.60;99.90;;;;;;5012714;28;20484;-69
2022/01/19 02:53:21;;;;;;;7.10;6.17;;;4.70;99.90;;;;;;5011675;28;20490;-68
2022/01/19 02:55:46;;;;;;;6.83;6.13;;;4.60;99.90;;;;;;5011417;28;20234;-68
2022/01/19 02:58:14;;;;;;;7.60;6.40;;;4.60;99.90;;;;;;4997149;28;20266;-68
2022/01/19 03:08:57;;;;;;;7.70;7.00;;;4.80;99.90;;;;;;5031144;28;20880;-69
2022/01/19 03:11:24;;;;;;;8.13;7.40;;;4.90;99.90;;;;;;5029652;28;20810;-68
2022/01/19 03:13:49;;;;;;;8.80;8.00;;;4.90;99.90;;;;;;5031484;28;20449;-70
2022/01/19 03:16:18;;;;;;;8.60;7.90;;;4.90;99.90;;;;;;5013350;28;20418;-68
2022/01/19 03:18:43;;;;;;;9.10;8.20;;;4.90;99.90;;;;;;5031035;28;20180;-69
2022/01/19 03:21:09;;;;;;;9.57;8.03;;;5.10;99.90;;;;;;5030031;28;20408;-68
2022/01/19 03:23:34;;;;;;;8.30;7.60;;;5.20;99.90;;;;;;5031200;28;20175;-69
2022/01/19 03:26:05;;;;;;;7.93;7.20;;;5.30;99.90;;;;;;5030800;28;20183;-69
2022/01/19 03:28:30;;;;;;;8.70;7.73;;;5.30;99.90;;;;;;5031435;28;20654;-69
2022/01/19 03:30:56;;;;;;;9.33;8.43;;;5.30;99.90;;;;;;5031164;28;20445;-69
2022/01/19 03:33:21;;;;;;;18.50;8.13;;;5.20;99.90;;;;;;5029551;28;20682;-69
2022/01/19 03:35:47;;;;;;;7.30;6.70;;;5.20;99.90;;;;;;5030887;28;20196;-69
2022/01/19 03:38:13;;;;;;;8.10;7.40;;;5.20;99.90;;;;;;5030675;28;20215;-69
2022/01/19 03:40:39;;;;;;;7.80;6.80;;;5.30;99.90;;;;;;5031070;28;20210;-70
2022/01/19 03:43:05;;;;;;;8.77;7.97;;;5.40;99.90;;;;;;5029454;28;20453;-70
2022/01/19 03:45:33;;;;;;;8.30;7.60;;;5.40;99.90;;;;;;5030987;28;20442;-69
2022/01/19 03:48:15;;;;;;;7.43;6.73;;;5.40;99.90;;;;;;5031138;28;20806;-70
2022/01/19 03:50:40;;;;;;;8.50;7.70;;;5.40;99.90;;;;;;5030794;28;20410;-69
2022/01/19 03:53:06;;;;;;;7.43;6.83;;;5.30;99.90;;;;;;5029094;28;20512;-68
2022/01/19 03:55:31;;;;;;;7.27;6.57;;;5.30;99.90;;;;;;5030832;28;20659;-70
2022/01/19 03:57:57;;;;;;;9.07;8.17;;;5.30;99.90;;;;;;5030910;28;20559;-69
2022/01/19 04:00:23;;;;;;;8.63;7.83;;;5.20;99.90;;;;;;5030975;28;20253;-69
2022/01/19 04:02:49;;;;;;;8.20;7.40;;;5.30;99.90;;;;;;5032931;28;20184;-69
2022/01/19 04:05:22;;;;;;;7.07;6.47;;;5.20;99.90;;;;;;5033317;28;20429;-69
2022/01/19 04:07:47;;;;;;;6.80;6.30;;;5.20;99.90;;;;;;5034383;28;20439;-70
2022/01/19 04:10:13;;;;;;;7.63;6.87;;;5.30;99.90;;;;;;5034517;28;20500;-69
2022/01/19 04:12:52;;;;;;;7.80;7.10;;;5.40;99.90;;;;;;5020887;28;20261;-69
2022/01/19 04:15:19;;;;;;;7.70;7.00;;;5.50;99.90;;;;;;5014830;28;20625;-69
2022/01/19 04:17:51;;;;;;;7.53;6.93;;;5.50;99.90;;;;;;5014595;28;20498;-69
2022/01/19 04:20:17;;;;;;;7.53;6.83;;;5.50;99.90;;;;;;5014735;28;20402;-69
2022/01/19 04:22:42;;;;;;;7.90;7.20;;;5.50;99.90;;;;;;5015693;28;20426;-70
2022/01/19 04:25:08;;;;;;;8.13;7.50;;;5.60;99.90;;;;;;5014477;28;20410;-69
2022/01/19 04:27:34;;;;;;;8.23;7.53;;;5.60;99.90;;;;;;5014187;28;20198;-69
2022/01/19 04:30:09;;;;;;;8.63;7.87;;;5.60;99.90;;;;;;5014307;28;20203;-69
2022/01/19 04:32:47;;;;;;;8.30;7.57;;;5.70;99.90;;;;;;5015301;28;20445;-69
2022/01/19 04:35:17;;;;;;;8.57;7.53;;;5.70;99.90;;;;;;5014395;28;20414;-69
2022/01/19 04:46:04;;;;;;;7.30;6.70;;;5.70;99.90;;;;;;5014167;28;20414;-69
2022/01/19 04:49:06;;;;;;;6.60;6.07;;;5.70;99.90;;;;;;5014034;28;20449;-69
2022/01/19 05:09:57;;;;;;;6.47;5.90;;;5.80;99.90;;;;;;5014077;28;20407;-69
2022/01/19 05:15:20;;;;;;;7.90;7.20;;;5.80;99.90;;;;;;4974813;28;20488;-68
2022/01/19 05:17:46;;;;;;;7.10;6.60;;;5.80;99.90;;;;;;5026607;28;20489;-70
2022/01/19 05:20:12;;;;;;;8.10;7.30;;;5.80;99.90;;;;;;5025343;28;20190;-69
2022/01/19 05:22:38;;;;;;;8.30;7.57;;;5.70;99.90;;;;;;5027563;28;20733;-69
2022/01/19 05:25:05;;;;;;;7.10;6.60;;;5.70;99.90;;;;;;5030004;28;20822;-69
2022/01/19 05:27:31;;;;;;;7.17;6.57;;;5.70;99.90;;;;;;5029626;28;20495;-69
2022/01/19 05:29:56;;;;;;;7.10;6.53;;;5.70;99.90;;;;;;5033137;28;20406;-70
2022/01/19 05:32:23;;;;;;;8.33;7.63;;;5.80;99.90;;;;;;5023004;28;20451;-69
2022/01/19 05:34:48;;;;;;;7.97;7.23;;;5.90;99.90;;;;;;5029574;28;20206;-69
2022/01/19 05:37:14;;;;;;;7.80;7.10;;;5.80;99.90;;;;;;5026910;28;20515;-70
2022/01/19 05:39:39;;;;;;;6.83;6.33;;;5.80;99.90;;;;;;5027274;28;20218;-68
2022/01/19 05:42:05;;;;;;;6.90;6.30;;;5.80;99.90;;;;;;5027194;28;20197;-69
2022/01/19 05:44:31;;;;;;;7.07;6.30;;;5.80;99.90;;;;;;5027641;28;20184;-70
2022/01/19 05:46:57;;;;;;;6.83;6.30;;;5.90;99.90;;;;;;5025624;28;20455;-69
2022/01/19 05:49:22;;;;;;;7.13;6.53;;;5.90;99.90;;;;;;5030043;28;20190;-70
2022/01/19 05:51:48;;;;;;;7.50;6.97;;;5.80;99.90;;;;;;5029148;28;20198;-69
2022/01/19 05:54:14;;;;;;;6.70;6.10;;;5.90;99.90;;;;;;5027164;28;20209;-69
2022/01/19 05:56:39;;;;;;;7.47;6.77;;;6.00;99.90;;;;;;5030279;28;20202;-72
2022/01/19 05:59:05;;;;;;;6.90;6.30;;;6.00;99.90;;;;;;5024199;28;20426;-69
2022/01/19 06:01:30;;;;;;;6.87;6.37;;;5.90;99.90;;;;;;5024099;28;20252;-70
2022/01/19 06:03:56;;;;;;;7.23;6.30;;;5.90;99.90;;;;;;5032060;28;20710;-69
2022/01/19 06:06:21;;;;;;;7.30;6.80;;;5.90;99.90;;;;;;5022737;28;20527;-70
2022/01/19 06:08:59;;;;;;;6.67;6.07;;;5.80;99.90;;;;;;5032286;28;20217;-69
2022/01/19 06:11:25;;;;;;;7.10;6.60;;;5.90;99.90;;;;;;5032458;28;20182;-69
2022/01/19 06:13:51;;;;;;;7.10;6.50;;;5.70;99.90;;;;;;5032197;28;20497;-70
2022/01/19 06:16:17;;;;;;;6.47;5.87;;;5.70;99.90;;;;;;5017436;28;20168;-69
2022/01/19 06:18:43;;;;;;;6.10;5.67;;;5.70;99.90;;;;;;5012051;28;20426;-69
2022/01/19 06:21:09;;;;;;;6.40;5.90;;;5.80;99.90;;;;;;5011495;28;20206;-70
2022/01/19 06:23:36;;;;;;;5.90;5.40;;;5.70;99.90;;;;;;5011958;28;20178;-70
2022/01/19 06:26:05;;;;;;;6.27;5.63;;;5.70;99.90;;;;;;5009334;28;20491;-71
2022/01/19 06:28:31;;;;;;;6.90;6.40;;;5.80;99.90;;;;;;5026215;28;20454;-70
2022/01/19 06:30:57;;;;;;;7.43;6.83;;;5.80;99.90;;;;;;5026209;28;20428;-70
2022/01/19 06:33:22;;;;;;;6.70;5.63;;;5.70;99.90;;;;;;5027251;28;20634;-71
2022/01/19 06:35:48;;;;;;;6.53;5.93;;;5.80;99.90;;;;;;5045995;28;20180;-70
2022/01/19 06:38:13;;;;;;;7.37;6.33;;;5.70;99.90;;;;;;5026298;28;20258;-70
2022/01/19 06:40:39;;;;;;;6.63;6.03;;;5.70;99.90;;;;;;5045750;22;20696;-68
2022/01/19 06:43:05;;;;;;;6.53;5.93;;;5.70;99.90;;;;;;5018181;28;20269;-68
2022/01/19 06:45:31;;;;;;;6.30;5.80;;;5.80;99.90;;;;;;5008119;28;20748;-68
2022/01/19 06:47:56;;;;;;;5.87;5.37;;;5.70;99.90;;;;;;5008951;28;20426;-68
2022/01/19 06:50:23;;;;;;;6.07;5.57;;;5.70;99.90;;;;;;5010246;28;20454;-67
2022/01/19 06:52:49;;;;;;;6.03;5.43;;;5.70;99.90;;;;;;5001023;28;20481;-69
2022/01/19 06:55:16;;;;;;;6.20;5.60;;;5.80;99.90;;;;;;5007818;28;21001;-67
2022/01/19 06:57:44;;;;;;;9.30;8.60;;;5.80;99.90;;;;;;5008124;28;21007;-67
2022/01/19 07:00:11;;;;;;;6.73;6.13;;;5.80;99.90;;;;;;5010111;28;20487;-67
2022/01/19 07:02:36;;;;;;;6.63;6.03;;;5.90;99.90;;;;;;5006596;28;20468;-67
2022/01/19 07:05:04;;;;;;;6.40;5.90;;;5.90;99.90;;;;;;5007814;28;20957;-68
2022/01/19 07:07:29;;;;;;;6.90;6.20;;;5.90;99.90;;;;;;5007973;28;20230;-66
2022/01/19 07:09:55;;;;;;;6.73;6.23;;;5.90;99.90;;;;;;5008129;28;20476;-66
2022/01/19 07:12:21;;;;;;;6.77;5.87;;;5.90;99.90;;;;;;5009514;28;20219;-72
2022/01/19 07:14:47;;;;;;;6.80;6.20;;;6.00;99.90;;;;;;5008267;28;20489;-66
2022/01/19 07:17:13;;;;;;;6.57;5.83;;;5.90;99.90;;;;;;5006648;28;20837;-67
2022/01/19 07:19:38;;;;;;;6.30;5.70;;;5.90;99.90;;;;;;5009440;28;20199;-69
2022/01/19 07:22:04;;;;;;;5.90;5.30;;;5.90;99.90;;;;;;5018362;28;20585;-67
2022/01/19 07:24:29;;;;;;;5.20;4.80;;;5.80;99.90;;;;;;5007305;28;20221;-67
2022/01/19 07:26:55;;;;;;;7.30;5.60;;;5.90;99.90;;;;;;5007393;28;20220;-66
2022/01/19 07:29:21;;;;;;;6.17;5.77;;;5.90;99.90;;;;;;5009083;28;20688;-68
2022/01/19 07:31:46;;;;;;;9.33;6.23;;;5.80;99.90;;;;;;5007545;28;20262;-68
2022/01/19 07:34:12;;;;;;;6.10;5.60;;;5.90;99.90;;;;;;5007565;28;20215;-67
2022/01/19 07:36:37;;;;;;;6.30;5.80;;;5.80;99.90;;;;;;5015290;28;20206;-68
2022/01/19 07:39:04;;;;;;;7.30;6.60;;;5.80;99.90;;;;;;5015878;28;21020;-68
2022/01/19 07:41:30;;;;;;;6.30;5.80;;;5.80;99.90;;;;;;5010907;28;20195;-69
2022/01/19 07:43:55;;;;;;;6.40;5.90;;;5.80;99.90;;;;;;5014606;28;20523;-68
2022/01/19 07:46:21;;;;;;;6.83;6.23;;;5.70;99.90;;;;;;5019066;28;20210;-68
2022/01/19 07:48:46;;;;;;;6.23;5.73;;;5.70;99.90;;;;;;5011934;28;20219;-70
2022/01/19 07:51:12;;;;;;;9.10;6.70;;;5.80;99.90;;;;;;5009270;28;20218;-69
2022/01/19 07:53:38;;;;;;;7.17;6.57;;;5.70;99.90;;;;;;5009851;28;20215;-69
2022/01/19 07:56:04;;;;;;;6.67;6.07;;;5.60;99.90;;;;;;5010539;28;20203;-68
2022/01/19 07:58:30;;;;;;;6.90;6.20;;;5.60;99.90;;;;;;5011945;28;20458;-68
2022/01/19 08:00:56;;;;;;;8.57;7.33;;;5.60;99.90;;;;;;5010807;28;20504;-67
2022/01/19 08:03:22;;;;;;;7.40;6.60;;;5.60;99.90;;;;;;5006289;28;20191;-68
2022/01/19 08:05:48;;;;;;;7.37;6.57;;;5.70;99.90;;;;;;5012349;28;20190;-69
2022/01/19 08:08:14;;;;;;;8.17;7.33;;;5.70;99.90;;;;;;5013053;28;20457;-67
2022/01/19 08:10:42;;;;;;;7.73;7.03;;;5.70;99.90;;;;;;5012215;28;20804;-67
2022/01/19 08:13:08;;;;;;;6.60;5.90;;;5.70;99.90;;;;;;4990287;28;20465;-67
2022/01/19 08:15:34;;;;;;;7.90;7.10;;;5.80;99.90;;;;;;5011255;28;20422;-68
2022/01/19 08:18:00;;;;;;;7.37;6.67;;;5.90;99.90;;;;;;5011899;28;20422;-68
2022/01/19 08:20:25;;;;;;;7.40;6.80;;;5.90;99.90;;;;;;5018849;28;20687;-68
2022/01/19 08:22:51;;;;;;;7.90;7.10;;;5.90;99.90;;;;;;5017153;28;20600;-67
2022/01/19 08:25:16;;;;;;;7.30;6.60;;;5.80;99.90;;;;;;5011094;28;20209;-68
2022/01/19 08:27:42;;;;;;;8.40;7.60;;;5.70;99.90;;;;;;5011668;28;20282;-67
2022/01/19 08:30:10;;;;;;;8.33;7.40;;;5.70;99.90;;;;;;5016782;28;20450;-69
2022/01/19 08:32:37;;;;;;;8.30;7.47;;;5.80;99.90;;;;;;5014160;28;20217;-68
2022/01/19 08:35:04;;;;;;;9.20;8.30;;;5.80;99.90;;;;;;5015729;28;20469;-68
2022/01/19 08:37:30;;;;;;;9.73;8.17;;;5.80;99.90;;;;;;5017067;28;20835;-67
2022/01/19 08:39:55;;;;;;;8.80;7.90;;;5.70;99.90;;;;;;5010711;28;20500;-68
2022/01/19 08:42:21;;;;;;;8.50;7.70;;;5.80;99.90;;;;;;5012184;28;20187;-67
2022/01/19 08:44:47;;;;;;;11.63;8.00;;;5.80;99.90;;;;;;5010999;28;20194;-68
2022/01/19 08:47:13;;;;;;;10.30;8.70;;;5.80;99.90;;;;;;5011357;28;20430;-67
2022/01/19 08:49:39;;;;;;;8.70;7.90;;;5.70;99.90;;;;;;5010579;28;20994;-68
2022/01/19 08:52:05;;;;;;;10.53;8.13;;;5.80;99.90;;;;;;5011279;28;20458;-68
2022/01/19 08:54:31;;;;;;;8.93;8.13;;;5.80;99.90;;;;;;5011342;28;20211;-68
2022/01/19 08:56:57;;;;;;;15.10;9.30;;;5.80;99.90;;;;;;5010998;28;20426;-67
2022/01/19 08:59:23;;;;;;;8.27;7.47;;;5.80;99.90;;;;;;5011183;28;20434;-67
2022/01/19 09:01:49;;;;;;;10.70;9.60;;;5.50;99.90;;;;;;5009839;28;20436;-69
2022/01/19 09:04:14;;;;;;;9.50;8.50;;;5.50;99.90;;;;;;5020179;28;20716;-68
2022/01/19 09:06:40;;;;;;;12.73;8.90;;;5.50;99.90;;;;;;5011170;28;20180;-68
2022/01/19 09:09:05;;;;;;;12.43;9.87;;;5.50;99.90;;;;;;5011369;28;20207;-69
2022/01/19 09:11:31;;;;;;;13.23;10.20;;;5.50;99.90;;;;;;5011025;28;20187;-68
2022/01/19 09:13:57;;;;;;;12.37;10.50;;;5.50;99.90;;;;;;5012330;28;20211;-69
2022/01/19 09:16:23;;;;;;;12.40;10.57;;;5.50;99.90;;;;;;5010569;28;20207;-67
2022/01/19 09:18:48;;;;;;;12.87;10.90;;;5.50;99.90;;;;;;5012399;28;20419;-69
2022/01/19 09:21:14;;;;;;;15.17;11.00;;;5.50;99.90;;;;;;5023577;28;20206;-69
2022/01/19 09:23:39;;;;;;;13.60;10.97;;;5.60;99.90;;;;;;5011925;28;20183;-69
2022/01/19 09:26:05;;;;;;;14.43;11.33;;;5.60;99.90;;;;;;5011369;28;21084;-69
2022/01/19 09:28:31;;;;;;;14.87;11.90;;;5.50;99.90;;;;;;5011675;28;20179;-68
2022/01/19 09:31:00;;;;;;;14.30;11.73;;;5.50;99.90;;;;;;5010850;28;20211;-67
2022/01/19 09:33:28;;;;;;;15.87;12.63;;;5.60;99.90;;;;;;5011901;28;20461;-69
2022/01/19 09:38:32;;;;;;;14.43;12.27;;;5.60;99.90;;;;;;5016007;28;20430;-68
2022/01/19 09:40:58;;;;;;;19.83;12.47;;;5.70;99.90;;;;;;5011918;28;20480;-68
2022/01/19 09:43:25;;;;;;;15.73;13.03;;;5.70;99.90;;;;;;5011857;28;20456;-67
2022/01/19 09:45:55;;;;;;;18.63;12.97;;;5.70;99.90;;;;;;5009974;28;20892;-67
2022/01/19 09:48:22;;;;;;;16.37;13.13;;;5.70;99.90;;;;;;5011890;28;20415;-68
2022/01/19 09:50:47;;;;;;;15.03;12.33;;;5.80;99.90;;;;;;5010168;28;20446;-67
2022/01/19 09:53:13;;;;;;;16.07;12.90;;;5.80;99.90;;;;;;5011320;28;21101;-67
2022/01/19 09:55:40;;;;;;;18.50;13.43;;;5.80;99.90;;;;;;5012997;28;20179;-67
2022/01/19 09:58:08;;;;;;;14.90;12.80;;;5.80;99.90;;;;;;5011703;28;20417;-67
2022/01/19 10:00:33;;;;;;;17.37;13.17;;;5.70;99.90;;;;;;5007684;28;20487;-69
2022/01/19 10:03:14;;;;;;;14.40;12.10;;;5.70;99.90;;;;;;5009850;28;20456;-68
2022/01/19 10:06:05;;;;;;;15.30;12.20;;;5.70;99.90;;;;;;4994916;28;20803;-67
2022/01/19 10:08:41;;;;;;;14.37;12.07;;;5.80;99.90;;;;;;5009853;28;20418;-68
2022/01/19 10:17:01;;;;;;;18.00;12.30;;;5.70;99.90;;;;;;5010685;28;20890;-67
2022/01/19 10:19:38;;;;;;;14.93;12.50;;;5.80;99.90;;;;;;5009721;28;20922;-69
2022/01/19 10:22:25;;;;;;;14.00;11.50;;;5.90;99.90;;;;;;4995893;28;20434;-67
2022/01/19 10:24:52;;;;;;;14.30;12.07;;;5.80;99.90;;;;;;5009679;28;20446;-69
2022/01/19 10:27:47;;;;;;;12.57;11.23;;;5.90;99.90;;;;;;5010651;28;20433;-68
2022/01/19 10:30:24;;;;;;;13.93;11.37;;;5.80;99.90;;;;;;4986701;28;20967;-68
2022/01/19 10:32:55;;;;;;;20.00;11.63;;;5.70;99.90;;;;;;4987407;28;20427;-68
2022/01/19 10:35:38;;;;;;;16.73;13.43;;;5.70;99.90;;;;;;4986709;28;20514;-68
2022/01/19 10:38:12;;;;;;;16.67;12.17;;;5.70;99.90;;;;;;4974327;28;20435;-68
2022/01/19 10:40:40;;;;;;;15.80;12.27;;;5.60;99.90;;;;;;4983935;28;20472;-67
2022/01/19 10:43:27;;;;;;;14.70;11.83;;;5.70;99.90;;;;;;4986355;28;20434;-68
2022/01/19 10:45:53;;;;;;;17.40;12.40;;;5.70;99.90;;;;;;4986153;28;20871;-68
2022/01/19 10:48:37;;;;;;;15.07;12.20;;;5.70;99.90;;;;;;4987220;28;21190;-68
2022/01/19 10:51:18;;;;;;;16.13;12.27;;;5.70;99.90;;;;;;4985613;28;20543;-68
2022/01/19 10:54:06;;;;;;;16.43;12.70;;;5.80;99.90;;;;;;4987009;28;20537;-70
2022/01/19 10:56:32;;;;;;;14.50;11.80;;;5.90;99.90;;;;;;4986325;28;20455;-67
2022/01/19 10:58:59;;;;;;;14.63;11.73;;;5.90;99.90;;;;;;4986562;28;20599;-67
2022/01/19 11:01:36;;;;;;;15.83;12.47;;;5.90;99.90;;;;;;4975078;28;20459;-70
2022/01/19 11:04:19;;;;;;;17.00;13.27;;;5.90;99.90;;;;;;4986752;28;20444;-67
2022/01/19 11:06:56;;;;;;;15.57;12.27;;;6.00;99.90;;;;;;4999044;28;20938;-67
2022/01/19 11:09:25;;;;;;;14.20;12.20;;;6.00;99.90;;;;;;5008900;28;20453;-67
2022/01/19 11:11:53;;;;;;;15.00;11.30;;;6.00;99.90;;;;;;5010299;28;20438;-70
2022/01/19 11:14:18;;;;;;;11.73;10.50;;;6.00;99.90;;;;;;5009416;28;20466;-68
2022/01/19 11:16:45;;;;;;;14.17;11.50;;;5.90;99.90;;;;;;5009303;28;20437;-67
2022/01/19 11:19:11;;;;;;;13.10;11.73;;;5.90;99.90;;;;;;4995200;28;20187;-68
2022/01/19 11:21:51;;;;;;;15.27;11.67;;;5.90;99.90;;;;;;5020676;28;20473;-68
2022/01/19 11:24:32;;;;;;;12.97;11.27;;;5.90;99.90;;;;;;5008819;28;20461;-68
2022/01/19 11:26:59;;;;;;;12.40;11.07;;;6.00;99.90;;;;;;5009236;28;20468;-69
2022/01/19 11:29:25;;;;;;;13.87;10.97;;;6.00;99.90;;;;;;5009056;28;20442;-69
2022/01/19 11:31:53;;;;;;;16.37;11.10;;;6.10;99.90;;;;;;5009048;28;20435;-68
2022/01/19 11:34:46;;;;;;;15.90;11.63;;;6.20;99.90;;;;;;5009109;28;21078;-68
2022/01/19 11:37:13;;;;;;;14.30;11.63;;;6.30;99.90;;;;;;5017250;28;20446;-68
2022/01/19 11:40:03;;;;;;;13.43;12.00;;;6.20;99.90;;;;;;4994290;28;20996;-68
2022/01/19 11:42:29;;;;;;;15.73;11.87;;;6.10;99.90;;;;;;5011738;28;20497;-68
2022/01/19 11:44:54;;;;;;;15.77;11.90;;;6.10;99.90;;;;;;5017060;28;20453;-68
2022/01/19 11:47:26;;;;;;;27.60;13.23;;;6.00;99.90;;;;;;5015651;28;20264;-68
2022/01/19 11:50:00;;;;;;;13.10;11.50;;;5.90;99.90;;;;;;5013036;28;20264;-68
2022/01/19 11:52:48;;;;;;;14.77;11.73;;;5.90;99.90;;;;;;5024962;28;20497;-68
2022/01/19 11:55:16;;;;;;;18.30;13.27;;;5.90;99.90;;;;;;5016336;28;20449;-67
2022/01/19 11:57:44;;;;;;;16.07;12.53;;;6.00;99.90;;;;;;5024098;28;20430;-68
2022/01/19 12:00:14;;;;;;;14.53;11.60;;;6.00;99.90;;;;;;5001956;28;20466;-68
2022/01/19 12:02:45;;;;;;;15.10;12.57;;;5.90;99.90;;;;;;5020613;28;20423;-68
2022/01/19 12:05:11;;;;;;;13.20;11.77;;;5.90;99.90;;;;;;5012713;28;20770;-69
2022/01/19 12:07:37;;;;;;;14.87;12.53;;;5.90;99.90;;;;;;5012261;28;20429;-68
2022/01/19 12:10:07;;;;;;;16.90;12.67;;;5.90;99.90;;;;;;5011939;28;20684;-68
2022/01/19 12:12:38;;;;;;;12.27;10.97;;;6.00;99.90;;;;;;5027432;28;20450;-67
2022/01/19 12:15:07;;;;;;;13.50;11.90;;;6.00;99.90;;;;;;5035172;28;20467;-67
2022/01/19 12:17:56;;;;;;;16.40;13.40;;;6.00;99.90;;;;;;5029603;28;20473;-67
2022/01/19 12:20:57;;;;;;;17.73;12.33;;;6.00;99.90;;;;;;5029102;28;20430;-67
2022/01/19 12:23:27;;;;;;;15.80;13.03;;;6.00;99.90;;;;;;4934116;29;20472;-67
2022/01/19 12:25:54;;;;;;;16.97;12.90;;;6.00;99.90;;;;;;4943915;29;20436;-68
2022/01/19 12:28:49;;;;;;;14.97;12.70;;;5.90;99.90;;;;;;4938684;29;20516;-68
2022/01/19 12:31:37;;;;;;;16.53;12.97;;;5.70;99.90;;;;;;4932597;29;21033;-70
2022/01/19 12:34:02;;;;;;;15.53;12.33;;;5.90;99.90;;;;;;4931855;29;20465;-67
2022/01/19 12:36:40;;;;;;;16.03;13.13;;;5.90;99.90;;;;;;4931513;29;20849;-70
2022/01/19 12:39:32;;;;;;;15.80;13.17;;;5.90;99.90;;;;;;4931419;29;20193;-68
2022/01/19 12:42:13;;;;;;;16.43;13.10;;;5.80;99.90;;;;;;4991086;22;20496;-70
2022/01/19 12:44:50;;;;;;;18.53;14.57;;;5.90;99.90;;;;;;5029449;28;20417;-71
2022/01/19 12:47:24;;;;;;;15.80;13.73;;;5.80;99.90;;;;;;5030777;28;20416;-70
2022/01/19 12:49:50;;;;;;;16.97;13.20;;;5.90;99.90;;;;;;5030805;28;20466;-69
2022/01/19 12:52:17;;;;;;;17.60;14.17;;;5.90;99.90;;;;;;5031769;28;20520;-71
2022/01/19 12:54:42;;;;;;;19.40;13.90;;;5.80;99.90;;;;;;5030989;28;20452;-71
2022/01/19 12:57:14;;;;;;;18.60;14.70;;;5.90;99.90;;;;;;5030528;28;20429;-71
2022/01/19 12:59:40;;;;;;;18.47;13.47;;;5.90;99.90;;;;;;5031165;28;20173;-71
2022/01/19 13:02:06;;;;;;;15.33;12.70;;;6.00;99.90;;;;;;5031600;28;20441;-70
2022/01/19 13:04:34;;;;;;;16.73;14.20;;;5.90;99.90;;;;;;5029915;28;20418;-70
2022/01/19 13:07:21;;;;;;;20.50;15.33;;;5.90;99.90;;;;;;5033311;28;20429;-70
2022/01/19 13:10:26;;;;;;;17.53;14.43;;;5.80;99.90;;;;;;5024024;28;20494;-70
2022/01/19 13:15:38;;;;;;;15.87;13.73;;;5.80;99.90;;;;;;5032119;28;20437;-69
2022/01/19 13:18:03;;;;;;;18.50;14.03;;;5.80;99.90;;;;;;5029533;28;20425;-69
2022/01/19 13:20:29;;;;;;;19.10;15.13;;;5.80;99.90;;;;;;5036414;28;20447;-67
2022/01/19 13:22:56;;;;;;;19.37;13.63;;;5.70;99.90;;;;;;5037541;28;20745;-68
2022/01/19 13:25:27;;;;;;;19.20;15.60;;;5.80;99.90;;;;;;5029732;28;20614;-68
2022/01/19 13:28:00;;;;;;;19.20;14.63;;;5.80;99.90;;;;;;5029733;28;20430;-69
2022/01/19 13:30:29;;;;;;;18.60;13.90;;;5.70;99.90;;;;;;5030048;28;20899;-69
2022/01/19 13:32:55;;;;;;;18.27;14.03;;;5.80;99.90;;;;;;5030585;28;20975;-69
2022/01/19 13:35:23;;;;;;;18.90;14.93;;;5.70;99.90;;;;;;5029298;28;20508;-69
2022/01/19 13:37:55;;;;;;;19.03;15.60;;;5.70;99.90;;;;;;5011614;28;20441;-70
2022/01/19 13:40:23;;;;;;;19.50;14.90;;;5.80;99.90;;;;;;5029705;28;21221;-70
2022/01/19 13:43:03;;;;;;;19.00;15.20;;;5.80;99.90;;;;;;5028693;28;20522;-70
2022/01/19 13:50:40;;;;;;;19.63;15.17;;;5.80;99.90;;;;;;5029536;28;20421;-70
2022/01/19 13:53:06;;;;;;;19.30;15.37;;;5.90;99.90;;;;;;5029089;28;20473;-70
2022/01/19 13:55:32;;;;;;;19.30;14.80;;;5.80;99.90;;;;;;5030068;28;20445;-69
2022/01/19 13:58:09;;;;;;;17.97;14.23;;;5.80;99.90;;;;;;5029425;28;20414;-69
2022/01/19 14:00:36;;;;;;;19.97;14.30;;;5.80;99.90;;;;;;5029384;28;20182;-68
2022/01/19 14:03:04;;;;;;;18.07;14.20;;;5.90;99.90;;;;;;5028834;28;20442;-69
2022/01/19 14:05:38;;;;;;;16.70;13.80;;;5.90;99.90;;;;;;5030193;28;20795;-69
2022/01/19 14:08:03;;;;;;;22.33;15.77;;;5.90;99.90;;;;;;5031290;28;20444;-69
2022/01/19 14:10:48;;;;;;;20.13;15.63;;;5.80;99.90;;;;;;5029438;28;20790;-69
2022/01/19 14:13:40;;;;;;;21.30;15.30;;;5.70;99.90;;;;;;5028563;28;20319;-70
2022/01/19 14:16:26;;;;;;;22.07;15.30;;;5.70;99.90;;;;;;5033207;28;20813;-69
2022/01/19 14:19:09;;;;;;;21.77;15.70;;;5.80;99.90;;;;;;5034915;28;20428;-70
2022/01/19 14:21:52;;;;;;;19.90;15.90;;;5.80;99.90;;;;;;5041862;28;20529;-69
2022/01/19 14:24:17;;;;;;;20.23;15.27;;;5.70;99.90;;;;;;5028606;28;20429;-69
2022/01/19 14:26:55;;;;;;;20.30;15.47;;;5.70;99.90;;;;;;5028779;28;20511;-69
2022/01/19 14:29:21;;;;;;;25.10;16.07;;;5.70;99.90;;;;;;5029071;28;20741;-70
2022/01/19 14:31:52;;;;;;;22.43;16.07;;;5.70;99.90;;;;;;5028602;28;20455;-70